Time;durP1;ratioP1;P1;durP2;ratioP2;P2;SDS_P1;SDS_P2;PMS_P1;PMS_P2;Temp;Humidity;BMP_temperature;BMP_pressure;BME280_temperature;BME280_humidity;BME280_pressure;Samples;Min_cycle;Max_cycle;Signal;HPM_P1;HPM_P2
2024/03/26 00:02:04;;;;;;;2.47;1.93;;;;;;;;;;5115690;28;20477;-73
2024/03/26 00:04:30;;;;;;;3.90;2.40;;;;;;;;;;5115533;28;20813;-72
2024/03/26 00:06:56;;;;;;;3.37;2.60;;;;;;;;;;5115354;28;20460;-74
2024/03/26 00:09:23;;;;;;;2.30;2.10;;;;;;;;;;5115014;28;20440;-74
2024/03/26 00:11:49;;;;;;;2.20;2.00;;;;;;;;;;5115352;28;20462;-74
2024/03/26 00:14:15;;;;;;;2.90;2.37;;;;;;;;;;5115276;28;20454;-74
2024/03/26 00:16:41;;;;;;;2.93;2.63;;;;;;;;;;5115272;28;20389;-73
2024/03/26 00:19:07;;;;;;;5.53;2.60;;;;;;;;;;5114656;28;20405;-73
2024/03/26 00:21:33;;;;;;;5.10;3.00;;;;;;;;;;5115195;28;20413;-73
2024/03/26 00:23:59;;;;;;;4.43;2.63;;;;;;;;;;5115021;28;20396;-73
2024/03/26 00:26:25;;;;;;;3.37;2.73;;;;;;;;;;5115174;28;20404;-74
2024/03/26 00:28:52;;;;;;;4.60;2.70;;;;;;;;;;5114940;28;20417;-73
2024/03/26 00:31:18;;;;;;;2.70;2.50;;;;;;;;;;5114841;28;20451;-73
2024/03/26 00:33:44;;;;;;;3.27;2.87;;;;;;;;;;5114878;28;20406;-72
2024/03/26 00:36:11;;;;;;;3.30;2.27;;;;;;;;;;5115449;28;20408;-74
2024/03/26 00:38:37;;;;;;;6.43;2.77;;;;;;;;;;5116477;28;20832;-73
2024/03/26 00:41:03;;;;;;;3.90;2.90;;;;;;;;;;5114896;28;20901;-71
2024/03/26 00:43:29;;;;;;;4.17;2.77;;;;;;;;;;5114745;28;20410;-73
2024/03/26 00:45:56;;;;;;;3.63;2.63;;;;;;;;;;5114609;28;20400;-73
2024/03/26 00:48:22;;;;;;;6.40;2.93;;;;;;;;;;5114545;28;20419;-73
2024/03/26 00:50:48;;;;;;;5.70;2.87;;;;;;;;;;5114647;28;20443;-73
2024/03/26 00:53:14;;;;;;;5.17;2.57;;;;;;;;;;5114429;28;20404;-74
2024/03/26 00:55:40;;;;;;;6.33;3.10;;;;;;;;;;5114581;28;20407;-73
2024/03/26 00:58:06;;;;;;;4.60;2.40;;;;;;;;;;5114664;28;20412;-74
2024/03/26 01:00:32;;;;;;;4.77;3.00;;;;;;;;;;5114314;28;20433;-74
2024/03/26 01:02:58;;;;;;;2.93;2.63;;;;;;;;;;5115431;28;20819;-74
2024/03/26 01:05:24;;;;;;;3.00;2.70;;;;;;;;;;5114537;28;20429;-74
2024/03/26 01:07:50;;;;;;;4.30;2.80;;;;;;;;;;5114171;28;20400;-74
2024/03/26 01:10:16;;;;;;;3.20;2.97;;;;;;;;;;5114023;28;20459;-74
2024/03/26 01:12:42;;;;;;;3.40;2.57;;;;;;;;;;5114025;28;20397;-74
2024/03/26 01:15:08;;;;;;;3.57;2.57;;;;;;;;;;5114109;28;20394;-74
2024/03/26 01:17:34;;;;;;;4.07;3.17;;;;;;;;;;5113945;28;20419;-74
2024/03/26 01:20:00;;;;;;;5.70;3.37;;;;;;;;;;5113768;28;20838;-74
2024/03/26 01:22:26;;;;;;;3.73;2.80;;;;;;;;;;5113738;28;20418;-74
2024/03/26 01:24:53;;;;;;;4.70;3.40;;;;;;;;;;5113965;28;20395;-74
2024/03/26 01:27:19;;;;;;;2.93;2.73;;;;;;;;;;5113745;28;20430;-74
2024/03/26 01:29:45;;;;;;;3.73;3.43;;;;;;;;;;5113617;28;20449;-73
2024/03/26 01:32:11;;;;;;;2.80;2.60;;;;;;;;;;5112810;28;20412;-74
2024/03/26 01:34:37;;;;;;;3.87;2.80;;;;;;;;;;5113719;28;20420;-74
2024/03/26 01:37:02;;;;;;;4.10;3.70;;;;;;;;;;5113708;28;20401;-73
2024/03/26 01:39:29;;;;;;;6.67;3.40;;;;;;;;;;5113604;28;20443;-74
2024/03/26 01:41:55;;;;;;;3.53;2.50;;;;;;;;;;5113774;28;20402;-74
2024/03/26 01:44:21;;;;;;;4.00;3.37;;;;;;;;;;5112476;28;20490;-77
2024/03/26 01:46:47;;;;;;;5.47;3.60;;;;;;;;;;5113627;28;20435;-75
2024/03/26 01:49:15;;;;;;;4.17;2.60;;;;;;;;;;5113728;28;20782;-74
2024/03/26 01:51:42;;;;;;;4.83;2.97;;;;;;;;;;5113823;28;20953;-73
2024/03/26 01:54:08;;;;;;;4.03;2.90;;;;;;;;;;5113826;28;20411;-74
2024/03/26 01:56:34;;;;;;;4.03;2.40;;;;;;;;;;5114013;28;20807;-74
2024/03/26 01:59:00;;;;;;;5.63;3.03;;;;;;;;;;5114065;28;20514;-74
2024/03/26 02:01:27;;;;;;;3.30;3.00;;;;;;;;;;5114247;28;20434;-74
2024/03/26 02:03:56;;;;;;;5.00;3.10;;;;;;;;;;5113804;28;20416;-75
2024/03/26 02:06:22;;;;;;;3.70;3.30;;;;;;;;;;5114036;28;20456;-74
2024/03/26 02:08:48;;;;;;;4.80;2.70;;;;;;;;;;5114929;28;20442;-73
2024/03/26 02:11:15;;;;;;;3.20;2.70;;;;;;;;;;5117536;28;20442;-74
2024/03/26 02:13:41;;;;;;;2.90;2.70;;;;;;;;;;5116125;28;20895;-74
2024/03/26 02:16:07;;;;;;;4.60;3.70;;;;;;;;;;5116477;28;20434;-74
2024/03/26 02:18:33;;;;;;;5.00;4.00;;;;;;;;;;5118126;28;20427;-74
2024/03/26 02:20:59;;;;;;;3.83;2.83;;;;;;;;;;5114632;28;20772;-73
2024/03/26 02:23:25;;;;;;;7.90;3.13;;;;;;;;;;5113738;28;20398;-74
2024/03/26 02:25:51;;;;;;;4.90;2.83;;;;;;;;;;5113137;28;20396;-74
2024/03/26 02:28:17;;;;;;;5.80;4.10;;;;;;;;;;5112705;28;20910;-74
2024/03/26 02:30:43;;;;;;;7.67;3.03;;;;;;;;;;5112714;28;20479;-72
2024/03/26 02:33:09;;;;;;;4.53;3.67;;;;;;;;;;5112816;28;20898;-72
2024/03/26 02:35:35;;;;;;;4.00;3.07;;;;;;;;;;5112886;28;20390;-73
2024/03/26 02:38:01;;;;;;;4.00;3.40;;;;;;;;;;5112728;28;20785;-72
2024/03/26 02:40:27;;;;;;;5.83;3.87;;;;;;;;;;5113019;28;20487;-73
2024/03/26 02:42:53;;;;;;;4.30;3.60;;;;;;;;;;5114745;28;20503;-72
2024/03/26 02:45:19;;;;;;;5.10;4.07;;;;;;;;;;5116862;28;20418;-72
2024/03/26 02:47:45;;;;;;;4.30;3.00;;;;;;;;;;5116762;28;20399;-71
2024/03/26 02:50:11;;;;;;;8.20;3.63;;;;;;;;;;5116695;28;20459;-73
2024/03/26 02:52:37;;;;;;;5.23;3.00;;;;;;;;;;5115475;28;20425;-73
2024/03/26 02:55:03;;;;;;;6.17;3.40;;;;;;;;;;5116622;28;20900;-72
2024/03/26 02:57:29;;;;;;;6.03;4.00;;;;;;;;;;5116665;28;20405;-73
2024/03/26 02:59:55;;;;;;;5.63;3.50;;;;;;;;;;5116723;28;21054;-72
2024/03/26 03:02:21;;;;;;;3.87;3.50;;;;;;;;;;5116491;28;20403;-73
2024/03/26 03:04:47;;;;;;;3.73;3.40;;;;;;;;;;5116729;28;20402;-71
2024/03/26 03:07:13;;;;;;;4.47;3.40;;;;;;;;;;5116530;28;20407;-73
2024/03/26 03:09:40;;;;;;;4.73;3.27;;;;;;;;;;5116152;28;20436;-73
2024/03/26 03:12:06;;;;;;;5.40;3.67;;;;;;;;;;5116529;28;20925;-73
2024/03/26 03:14:32;;;;;;;3.43;3.13;;;;;;;;;;5115185;28;20443;-72
2024/03/26 03:16:58;;;;;;;5.40;3.80;;;;;;;;;;5115019;28;20400;-73
2024/03/26 03:19:24;;;;;;;4.20;3.50;;;;;;;;;;5116267;28;20416;-73
2024/03/26 03:21:50;;;;;;;4.70;3.23;;;;;;;;;;5116279;28;20920;-72
2024/03/26 03:24:16;;;;;;;4.93;3.60;;;;;;;;;;5116271;28;20464;-74
2024/03/26 03:26:42;;;;;;;3.90;3.30;;;;;;;;;;5116179;28;20407;-73
2024/03/26 03:29:09;;;;;;;6.23;3.33;;;;;;;;;;5114718;28;20950;-73
2024/03/26 03:31:35;;;;;;;3.70;3.23;;;;;;;;;;5115898;28;20488;-73
2024/03/26 03:34:01;;;;;;;8.27;3.50;;;;;;;;;;5116204;28;20486;-74
2024/03/26 03:36:27;;;;;;;3.83;3.50;;;;;;;;;;5116056;28;20777;-73
2024/03/26 03:38:53;;;;;;;5.60;4.00;;;;;;;;;;5115829;28;20423;-72
2024/03/26 03:41:19;;;;;;;5.90;4.00;;;;;;;;;;5115850;28;20416;-73
2024/03/26 03:43:45;;;;;;;5.00;4.50;;;;;;;;;;5115833;28;20912;-73
2024/03/26 03:46:11;;;;;;;5.30;3.57;;;;;;;;;;5115745;28;20408;-73
2024/03/26 03:48:37;;;;;;;6.37;4.00;;;;;;;;;;5115622;28;20423;-74
2024/03/26 03:51:03;;;;;;;4.37;3.83;;;;;;;;;;5115478;28;20454;-74
2024/03/26 03:53:29;;;;;;;5.33;4.10;;;;;;;;;;5115069;28;20435;-74
2024/03/26 03:55:55;;;;;;;7.00;4.20;;;;;;;;;;5113756;28;20415;-73
2024/03/26 03:58:21;;;;;;;5.93;4.00;;;;;;;;;;5115378;28;20422;-73
2024/03/26 04:00:47;;;;;;;4.97;3.70;;;;;;;;;;5115473;28;20403;-74
2024/03/26 04:03:13;;;;;;;7.00;4.20;;;;;;;;;;5115450;28;20412;-74
2024/03/26 04:05:40;;;;;;;6.50;4.07;;;;;;;;;;5115330;28;20914;-74
2024/03/26 04:08:06;;;;;;;10.60;4.13;;;;;;;;;;5115207;28;20435;-74
2024/03/26 04:10:32;;;;;;;4.20;3.57;;;;;;;;;;5115181;28;20573;-74
2024/03/26 04:12:58;;;;;;;4.37;3.77;;;;;;;;;;5115251;28;20788;-74
2024/03/26 04:15:24;;;;;;;7.43;4.10;;;;;;;;;;5113975;28;20502;-73
2024/03/26 04:17:51;;;;;;;5.80;3.57;;;;;;;;;;5113800;28;20399;-73
2024/03/26 04:20:17;;;;;;;5.47;3.93;;;;;;;;;;5115091;28;20408;-73
2024/03/26 04:22:46;;;;;;;6.20;4.07;;;;;;;;;;5114947;28;20411;-74
2024/03/26 04:25:13;;;;;;;3.70;3.40;;;;;;;;;;5114905;28;21001;-73
2024/03/26 04:27:39;;;;;;;4.67;4.20;;;;;;;;;;5114887;28;20456;-73
2024/03/26 04:30:06;;;;;;;6.63;4.57;;;;;;;;;;5115050;28;20446;-74
2024/03/26 04:32:32;;;;;;;5.30;4.13;;;;;;;;;;5114793;28;20899;-73
2024/03/26 04:34:58;;;;;;;4.53;3.80;;;;;;;;;;5114779;28;20397;-73
2024/03/26 04:37:24;;;;;;;5.97;4.20;;;;;;;;;;5114823;28;21004;-73
2024/03/26 04:39:50;;;;;;;4.63;4.00;;;;;;;;;;5113387;28;20430;-75
2024/03/26 04:42:16;;;;;;;6.90;3.83;;;;;;;;;;5114846;28;20866;-75
2024/03/26 04:44:42;;;;;;;4.53;4.10;;;;;;;;;;5113384;28;20497;-75
2024/03/26 04:47:08;;;;;;;4.23;3.83;;;;;;;;;;5114568;28;20494;-75
2024/03/26 04:49:34;;;;;;;4.27;3.60;;;;;;;;;;5115073;28;20876;-73
2024/03/26 04:52:00;;;;;;;8.77;3.47;;;;;;;;;;5114542;28;20429;-72
2024/03/26 04:54:26;;;;;;;5.03;3.73;;;;;;;;;;5114346;28;20408;-73
2024/03/26 04:56:52;;;;;;;4.80;3.87;;;;;;;;;;5114427;28;20974;-73
2024/03/26 04:59:18;;;;;;;5.10;3.53;;;;;;;;;;5114199;28;20419;-73
2024/03/26 05:01:44;;;;;;;5.53;4.30;;;;;;;;;;5114315;28;20518;-74
2024/03/26 05:04:10;;;;;;;7.80;4.23;;;;;;;;;;5114374;28;20410;-74
2024/03/26 05:06:36;;;;;;;5.20;3.60;;;;;;;;;;5113111;28;21027;-74
2024/03/26 05:09:04;;;;;;;5.20;3.80;;;;;;;;;;5113967;28;20446;-73
2024/03/26 05:11:30;;;;;;;6.70;4.27;;;;;;;;;;5113867;28;20471;-72
2024/03/26 05:13:56;;;;;;;6.27;3.80;;;;;;;;;;5113833;28;20474;-73
2024/03/26 05:16:22;;;;;;;4.10;3.73;;;;;;;;;;5113918;28;21046;-71
2024/03/26 05:18:48;;;;;;;6.93;3.90;;;;;;;;;;5113718;28;20503;-72
2024/03/26 05:21:15;;;;;;;4.30;3.77;;;;;;;;;;5113953;28;20434;-72
2024/03/26 05:23:42;;;;;;;4.07;3.70;;;;;;;;;;5113796;28;20402;-72
2024/03/26 05:26:08;;;;;;;7.87;4.10;;;;;;;;;;5113786;28;20395;-72
2024/03/26 05:28:34;;;;;;;3.90;3.50;;;;;;;;;;5113657;28;20429;-72
2024/03/26 05:31:16;;;;;;;4.77;3.80;;;;;;;;;;5113707;28;20458;-72
2024/03/26 05:33:45;;;;;;;7.30;3.70;;;;;;;;;;5113937;28;20396;-72
2024/03/26 05:36:12;;;;;;;4.00;3.60;;;;;;;;;;5113610;28;20403;-73
2024/03/26 05:38:38;;;;;;;6.87;4.90;;;;;;;;;;5113723;28;20501;-73
2024/03/26 05:41:04;;;;;;;4.87;4.30;;;;;;;;;;5113572;28;20405;-72
2024/03/26 05:43:30;;;;;;;6.73;3.63;;;;;;;;;;5113581;28;20411;-73
2024/03/26 05:45:56;;;;;;;6.20;4.27;;;;;;;;;;5113430;28;20402;-73
2024/03/26 05:48:22;;;;;;;4.07;3.67;;;;;;;;;;5113574;28;20435;-73
2024/03/26 05:50:48;;;;;;;4.63;4.23;;;;;;;;;;5113424;28;20449;-73
2024/03/26 05:53:14;;;;;;;5.97;4.00;;;;;;;;;;5114563;28;20395;-73
2024/03/26 05:55:40;;;;;;;4.67;4.20;;;;;;;;;;5114130;28;20911;-73
2024/03/26 05:58:06;;;;;;;4.60;3.70;;;;;;;;;;5113694;28;20427;-72
2024/03/26 06:00:32;;;;;;;4.37;3.97;;;;;;;;;;5113469;28;20406;-74
2024/03/26 06:02:58;;;;;;;5.33;4.07;;;;;;;;;;5113568;28;20450;-73
2024/03/26 06:05:24;;;;;;;5.37;4.20;;;;;;;;;;5113325;28;20397;-73
2024/03/26 06:07:50;;;;;;;4.20;3.33;;;;;;;;;;5113060;28;20401;-73
2024/03/26 06:10:16;;;;;;;7.07;4.10;;;;;;;;;;5113212;28;20442;-73
2024/03/26 06:12:42;;;;;;;5.83;3.47;;;;;;;;;;5113179;28;20450;-73
2024/03/26 06:15:08;;;;;;;4.40;3.83;;;;;;;;;;5113132;28;20406;-73
2024/03/26 06:17:34;;;;;;;4.20;3.80;;;;;;;;;;5112739;28;20425;-74
2024/03/26 06:20:00;;;;;;;6.70;3.83;;;;;;;;;;5113102;28;20950;-74
2024/03/26 06:22:26;;;;;;;4.37;3.67;;;;;;;;;;5112932;28;20896;-74
2024/03/26 06:24:54;;;;;;;4.20;3.80;;;;;;;;;;5112807;28;20443;-74
2024/03/26 06:27:20;;;;;;;4.27;3.43;;;;;;;;;;5112884;28;20401;-73
2024/03/26 06:29:46;;;;;;;5.73;4.07;;;;;;;;;;5111511;28;20519;-74
2024/03/26 06:32:11;;;;;;;4.90;3.17;;;;;;;;;;5112778;28;20889;-74
2024/03/26 06:34:39;;;;;;;4.53;4.10;;;;;;;;;;5113009;28;20406;-74
2024/03/26 06:37:05;;;;;;;3.70;3.40;;;;;;;;;;5112935;28;20408;-73
2024/03/26 06:39:31;;;;;;;5.33;3.83;;;;;;;;;;5113183;28;20415;-74
2024/03/26 06:41:57;;;;;;;6.50;4.10;;;;;;;;;;5112797;28;20443;-74
2024/03/26 06:44:23;;;;;;;4.60;3.70;;;;;;;;;;5112855;28;20969;-74
2024/03/26 06:46:49;;;;;;;7.00;5.03;;;;;;;;;;5112947;28;20426;-73
2024/03/26 06:49:16;;;;;;;3.83;3.50;;;;;;;;;;5112570;28;20414;-74
2024/03/26 06:51:42;;;;;;;3.77;3.20;;;;;;;;;;5112630;28;20448;-74
2024/03/26 06:54:09;;;;;;;7.10;4.00;;;;;;;;;;5112567;28;20398;-73
2024/03/26 06:56:35;;;;;;;5.57;3.80;;;;;;;;;;5112566;28;20424;-74
2024/03/26 06:59:01;;;;;;;8.87;4.60;;;;;;;;;;5112393;28;20936;-74
2024/03/26 07:01:30;;;;;;;4.93;4.40;;;;;;;;;;5112796;28;20402;-73
2024/03/26 07:03:56;;;;;;;10.63;4.40;;;;;;;;;;5112711;28;20412;-74
2024/03/26 07:06:23;;;;;;;4.80;4.23;;;;;;;;;;5112533;28;20526;-73
2024/03/26 07:08:48;;;;;;;5.33;4.83;;;;;;;;;;5112329;28;20459;-71
2024/03/26 07:11:15;;;;;;;6.60;4.97;;;;;;;;;;5112509;28;20523;-73
2024/03/26 07:13:41;;;;;;;5.60;4.77;;;;;;;;;;5112455;28;20391;-74
2024/03/26 07:16:07;;;;;;;4.83;4.13;;;;;;;;;;5112481;28;20399;-72
2024/03/26 07:18:33;;;;;;;6.07;4.20;;;;;;;;;;5112482;28;20421;-73
2024/03/26 07:20:59;;;;;;;5.80;4.20;;;;;;;;;;5111185;28;20540;-73
2024/03/26 07:23:28;;;;;;;5.40;4.20;;;;;;;;;;5112278;28;20405;-73
2024/03/26 07:25:55;;;;;;;7.43;4.77;;;;;;;;;;5110926;28;20417;-73
2024/03/26 07:28:21;;;;;;;6.63;4.13;;;;;;;;;;5112374;28;20435;-73
2024/03/26 07:30:47;;;;;;;6.50;4.53;;;;;;;;;;5115331;28;20520;-73
2024/03/26 07:33:13;;;;;;;3.97;3.63;;;;;;;;;;5114782;28;20515;-73
2024/03/26 07:35:40;;;;;;;4.33;3.90;;;;;;;;;;5115959;28;20480;-73
2024/03/26 07:38:06;;;;;;;4.33;3.90;;;;;;;;;;5115798;28;20435;-73
2024/03/26 07:40:32;;;;;;;4.13;3.73;;;;;;;;;;5115781;28;20441;-74
2024/03/26 07:42:58;;;;;;;5.23;4.00;;;;;;;;;;5115710;28;20398;-73
2024/03/26 07:45:24;;;;;;;5.10;4.33;;;;;;;;;;5115806;28;20889;-74
2024/03/26 07:47:51;;;;;;;4.30;3.70;;;;;;;;;;5115744;28;20462;-73
2024/03/26 07:50:17;;;;;;;4.10;3.70;;;;;;;;;;5115600;28;20445;-72
2024/03/26 07:52:43;;;;;;;6.07;3.90;;;;;;;;;;5115587;28;20464;-74
2024/03/26 07:55:09;;;;;;;7.20;3.80;;;;;;;;;;5115602;28;20954;-73
2024/03/26 07:57:39;;;;;;;4.10;3.67;;;;;;;;;;5115600;28;20429;-73
2024/03/26 08:00:10;;;;;;;4.47;3.90;;;;;;;;;;5116059;28;20947;-73
2024/03/26 08:02:36;;;;;;;5.20;3.50;;;;;;;;;;5114268;28;20458;-73
2024/03/26 08:05:02;;;;;;;6.10;3.67;;;;;;;;;;5115540;28;20440;-74
2024/03/26 08:07:28;;;;;;;4.00;3.33;;;;;;;;;;5115613;28;20563;-74
2024/03/26 08:09:54;;;;;;;3.90;3.60;;;;;;;;;;5115070;28;20449;-74
2024/03/26 08:12:20;;;;;;;5.63;4.20;;;;;;;;;;5115317;28;20410;-72
2024/03/26 08:14:46;;;;;;;5.30;4.17;;;;;;;;;;5115199;28;20881;-73
2024/03/26 08:17:13;;;;;;;3.60;3.30;;;;;;;;;;5115319;28;20401;-73
2024/03/26 08:19:40;;;;;;;8.00;4.10;;;;;;;;;;5115180;28;20472;-73
2024/03/26 08:22:06;;;;;;;3.40;3.10;;;;;;;;;;5115292;28;20433;-73
2024/03/26 08:24:33;;;;;;;4.40;3.30;;;;;;;;;;5115123;28;20400;-73
2024/03/26 08:26:59;;;;;;;4.57;4.13;;;;;;;;;;5113681;28;20413;-73
2024/03/26 08:29:25;;;;;;;4.33;3.70;;;;;;;;;;5114862;28;20415;-73
2024/03/26 08:31:51;;;;;;;5.97;4.23;;;;;;;;;;5114849;28;20445;-72
2024/03/26 08:34:17;;;;;;;6.70;4.23;;;;;;;;;;5115177;28;20908;-74
2024/03/26 08:36:44;;;;;;;7.00;4.73;;;;;;;;;;5115014;28;20408;-73
2024/03/26 08:39:13;;;;;;;5.70;4.50;;;;;;;;;;5114704;28;20410;-73
2024/03/26 08:41:39;;;;;;;7.10;4.10;;;;;;;;;;5113176;28;20416;-74
2024/03/26 08:44:05;;;;;;;4.80;4.30;;;;;;;;;;5114583;28;20446;-74
2024/03/26 08:46:32;;;;;;;5.50;3.83;;;;;;;;;;5114869;28;20405;-74
2024/03/26 08:48:58;;;;;;;4.37;3.93;;;;;;;;;;5114561;28;20426;-74
2024/03/26 08:51:27;;;;;;;4.33;3.37;;;;;;;;;;5114464;28;20447;-73
2024/03/26 08:53:54;;;;;;;5.30;4.00;;;;;;;;;;5114434;28;20403;-74
2024/03/26 08:56:20;;;;;;;5.53;4.80;;;;;;;;;;5114438;28;20900;-74
2024/03/26 08:58:46;;;;;;;4.70;3.63;;;;;;;;;;5114364;28;20421;-72
2024/03/26 09:01:12;;;;;;;4.27;3.67;;;;;;;;;;5114466;28;20409;-74
2024/03/26 09:03:38;;;;;;;6.07;3.87;;;;;;;;;;5114644;28;20895;-74
2024/03/26 09:06:04;;;;;;;4.67;4.10;;;;;;;;;;5114513;28;20478;-73
2024/03/26 09:08:30;;;;;;;4.83;3.40;;;;;;;;;;5114111;28;20445;-73
2024/03/26 09:10:56;;;;;;;4.50;4.10;;;;;;;;;;5114236;28;20444;-73
2024/03/26 09:13:22;;;;;;;4.50;3.83;;;;;;;;;;5114452;28;20424;-73
2024/03/26 09:15:48;;;;;;;4.40;4.00;;;;;;;;;;5112914;28;20402;-73
2024/03/26 09:18:14;;;;;;;5.67;4.50;;;;;;;;;;5114089;28;20423;-73
2024/03/26 09:20:40;;;;;;;5.90;4.33;;;;;;;;;;5114045;28;20405;-73
2024/03/26 09:23:06;;;;;;;4.20;3.73;;;;;;;;;;5114113;28;20417;-73
2024/03/26 09:25:32;;;;;;;8.40;4.13;;;;;;;;;;5114242;28;20401;-73
2024/03/26 09:27:59;;;;;;;5.50;4.63;;;;;;;;;;5113947;28;20407;-73
2024/03/26 09:30:27;;;;;;;5.20;4.37;;;;;;;;;;5114171;28;20454;-74
2024/03/26 09:32:53;;;;;;;5.90;4.60;;;;;;;;;;5114468;28;20406;-73
2024/03/26 09:35:20;;;;;;;6.03;4.40;;;;;;;;;;5114602;28;20405;-73
2024/03/26 09:37:46;;;;;;;4.20;3.77;;;;;;;;;;5114308;28;20393;-74
2024/03/26 09:40:13;;;;;;;4.97;4.43;;;;;;;;;;5113959;28;20413;-74
2024/03/26 09:42:41;;;;;;;5.30;4.53;;;;;;;;;;5114527;28;20476;-74
2024/03/26 09:45:08;;;;;;;4.30;3.90;;;;;;;;;;5112687;28;20406;-74
2024/03/26 09:47:34;;;;;;;6.43;4.27;;;;;;;;;;5113644;28;20417;-74
2024/03/26 09:50:03;;;;;;;5.80;4.00;;;;;;;;;;5113327;28;20455;-74
2024/03/26 09:52:34;;;;;;;4.20;3.80;;;;;;;;;;5112711;28;20509;-73
2024/03/26 09:55:00;;;;;;;4.80;3.97;;;;;;;;;;5113484;28;20381;-74
2024/03/26 09:57:27;;;;;;;4.33;3.93;;;;;;;;;;5113830;28;20418;-74
2024/03/26 09:59:53;;;;;;;4.97;3.90;;;;;;;;;;5113461;28;20414;-74
2024/03/26 10:02:21;;;;;;;5.27;4.30;;;;;;;;;;5113264;28;20400;-74
2024/03/26 10:04:47;;;;;;;12.77;4.47;;;;;;;;;;5111843;28;20413;-73
2024/03/26 10:07:13;;;;;;;5.10;4.50;;;;;;;;;;5113101;28;20409;-74
2024/03/26 10:09:39;;;;;;;5.00;4.03;;;;;;;;;;5112763;28;20902;-73
2024/03/26 10:12:09;;;;;;;5.37;4.00;;;;;;;;;;5113179;28;20563;-74
2024/03/26 10:14:35;;;;;;;4.97;4.17;;;;;;;;;;5113014;28;20920;-74
2024/03/26 10:17:01;;;;;;;4.70;4.20;;;;;;;;;;5112974;28;20397;-74
2024/03/26 10:19:27;;;;;;;4.33;3.90;;;;;;;;;;5112769;28;20470;-74
2024/03/26 10:21:53;;;;;;;5.43;4.30;;;;;;;;;;5112768;28;20455;-74
2024/03/26 10:24:20;;;;;;;7.90;4.20;;;;;;;;;;5112738;28;20398;-74
2024/03/26 10:26:48;;;;;;;6.63;3.80;;;;;;;;;;5113060;28;20891;-74
2024/03/26 10:29:14;;;;;;;9.90;5.30;;;;;;;;;;5112813;28;20433;-74
2024/03/26 10:31:43;;;;;;;7.67;4.30;;;;;;;;;;5112766;28;20445;-74
2024/03/26 10:34:10;;;;;;;7.03;4.10;;;;;;;;;;5112752;28;20401;-74
2024/03/26 10:36:37;;;;;;;4.80;4.00;;;;;;;;;;5113128;28;20540;-74
2024/03/26 10:39:04;;;;;;;4.40;4.00;;;;;;;;;;5112611;28;20957;-75
2024/03/26 10:41:31;;;;;;;8.43;4.37;;;;;;;;;;5112665;28;20733;-75
2024/03/26 10:43:58;;;;;;;8.33;4.17;;;;;;;;;;5112669;28;20469;-74
2024/03/26 10:46:24;;;;;;;7.40;4.30;;;;;;;;;;5111367;28;20945;-74
2024/03/26 10:48:51;;;;;;;6.17;4.17;;;;;;;;;;5111205;28;21013;-74
2024/03/26 10:51:17;;;;;;;5.80;4.17;;;;;;;;;;5112495;28;20480;-72
2024/03/26 10:53:43;;;;;;;7.30;3.90;;;;;;;;;;5112521;28;20422;-75
2024/03/26 10:56:11;;;;;;;4.03;3.57;;;;;;;;;;5112460;28;20482;-74
2024/03/26 10:58:37;;;;;;;4.50;4.10;;;;;;;;;;5112359;28;20419;-74
2024/03/26 11:01:04;;;;;;;7.03;4.47;;;;;;;;;;5112815;28;20968;-75
2024/03/26 11:03:31;;;;;;;4.40;3.93;;;;;;;;;;5113772;28;20450;-74
2024/03/26 11:06:00;;;;;;;4.73;4.00;;;;;;;;;;5116432;28;20401;-75
2024/03/26 11:08:27;;;;;;;8.23;4.77;;;;;;;;;;5116382;28;20891;-75
2024/03/26 11:11:08;;;;;;;4.43;4.03;;;;;;;;;;5116293;28;20439;-75
2024/03/26 11:13:35;;;;;;;4.37;3.50;;;;;;;;;;5116466;28;20728;-74
2024/03/26 11:16:01;;;;;;;3.83;3.40;;;;;;;;;;5116349;28;20893;-74
2024/03/26 11:18:32;;;;;;;4.27;3.87;;;;;;;;;;5116337;28;20425;-75
2024/03/26 11:21:08;;;;;;;9.40;3.60;;;;;;;;;;5116478;28;20749;-74
2024/03/26 11:23:34;;;;;;;4.30;3.47;;;;;;;;;;5116292;28;20386;-74
2024/03/26 11:26:01;;;;;;;3.40;3.10;;;;;;;;;;5116248;28;20402;-74
2024/03/26 11:28:27;;;;;;;6.23;3.30;;;;;;;;;;5115968;28;20429;-75
2024/03/26 11:30:54;;;;;;;4.53;3.10;;;;;;;;;;5114846;28;20442;-75
2024/03/26 11:33:24;;;;;;;5.90;3.80;;;;;;;;;;5116022;28;20406;-74
2024/03/26 11:35:50;;;;;;;4.60;3.20;;;;;;;;;;5115931;28;20395;-75
2024/03/26 11:38:16;;;;;;;5.53;3.53;;;;;;;;;;5115781;28;20769;-75
2024/03/26 11:40:43;;;;;;;6.30;3.67;;;;;;;;;;5115983;28;20920;-74
2024/03/26 11:43:09;;;;;;;8.57;3.97;;;;;;;;;;5115714;28;20411;-73
2024/03/26 11:45:35;;;;;;;6.77;2.83;;;;;;;;;;5115617;28;20928;-74
2024/03/26 11:48:01;;;;;;;4.00;3.20;;;;;;;;;;5115816;28;20402;-75
2024/03/26 11:50:27;;;;;;;4.10;3.10;;;;;;;;;;5115514;28;20985;-75
2024/03/26 11:52:53;;;;;;;5.63;3.43;;;;;;;;;;5116141;28;20398;-75
2024/03/26 11:55:19;;;;;;;6.77;3.13;;;;;;;;;;5115850;28;20456;-74
2024/03/26 11:57:45;;;;;;;5.03;2.80;;;;;;;;;;5115502;28;20477;-74
2024/03/26 12:00:12;;;;;;;5.70;3.20;;;;;;;;;;5115614;28;20452;-75
2024/03/26 12:02:39;;;;;;;3.10;2.47;;;;;;;;;;5115581;28;20471;-75
2024/03/26 12:05:05;;;;;;;4.07;2.77;;;;;;;;;;5114587;28;20449;-75
2024/03/26 12:07:32;;;;;;;3.03;2.53;;;;;;;;;;5115526;28;20407;-74
2024/03/26 12:09:58;;;;;;;5.17;2.73;;;;;;;;;;5113791;28;20442;-74
2024/03/26 12:12:25;;;;;;;6.10;3.50;;;;;;;;;;5115348;28;20410;-75
2024/03/26 12:14:51;;;;;;;6.43;3.00;;;;;;;;;;5114591;28;20398;-74
2024/03/26 12:17:17;;;;;;;6.97;3.10;;;;;;;;;;5115128;28;20481;-75
2024/03/26 12:19:43;;;;;;;4.33;2.37;;;;;;;;;;5115047;28;20414;-75
2024/03/26 12:22:10;;;;;;;5.30;3.20;;;;;;;;;;5115070;28;20398;-75
2024/03/26 12:24:36;;;;;;;4.00;2.83;;;;;;;;;;5115029;28;20539;-74
2024/03/26 12:27:03;;;;;;;3.43;2.73;;;;;;;;;;5115021;28;20395;-75
2024/03/26 12:29:29;;;;;;;3.50;2.60;;;;;;;;;;5114897;28;20425;-74
2024/03/26 12:31:55;;;;;;;5.30;2.40;;;;;;;;;;5114789;28;20491;-75
2024/03/26 12:34:21;;;;;;;4.50;2.50;;;;;;;;;;5114907;28;20405;-75
2024/03/26 12:36:47;;;;;;;3.67;3.07;;;;;;;;;;5114884;28;20396;-75
2024/03/26 12:39:13;;;;;;;5.07;2.73;;;;;;;;;;5114792;28;20842;-75
2024/03/26 12:41:39;;;;;;;3.27;2.40;;;;;;;;;;5115045;28;20433;-73
2024/03/26 12:44:12;;;;;;;2.70;2.07;;;;;;;;;;5114581;28;20395;-72
2024/03/26 12:46:38;;;;;;;3.87;1.97;;;;;;;;;;5114520;28;20403;-73
2024/03/26 12:49:04;;;;;;;2.97;2.20;;;;;;;;;;5114593;28;20964;-73
2024/03/26 12:51:31;;;;;;;2.97;2.07;;;;;;;;;;5114395;28;20472;-73
2024/03/26 12:54:03;;;;;;;3.93;2.13;;;;;;;;;;5114375;28;20431;-74
2024/03/26 12:56:31;;;;;;;2.83;2.13;;;;;;;;;;5114412;28;20904;-73
2024/03/26 12:58:57;;;;;;;2.57;2.03;;;;;;;;;;5114276;28;20418;-74
2024/03/26 13:01:23;;;;;;;4.83;2.30;;;;;;;;;;5114201;28;20410;-74
2024/03/26 13:03:49;;;;;;;3.30;2.07;;;;;;;;;;5113991;28;20398;-73
2024/03/26 13:06:15;;;;;;;3.83;2.17;;;;;;;;;;5113983;28;20752;-74
2024/03/26 13:08:41;;;;;;;3.53;2.03;;;;;;;;;;5113702;28;20448;-73
2024/03/26 13:11:10;;;;;;;2.50;1.47;;;;;;;;;;5116919;28;20446;-74
2024/03/26 13:13:36;;;;;;;2.40;2.20;;;;;;;;;;5117674;28;20425;-74
2024/03/26 13:16:02;;;;;;;4.27;2.17;;;;;;;;;;5115365;28;20772;-74
2024/03/26 13:18:28;;;;;;;3.83;2.70;;;;;;;;;;5113383;28;20530;-73
2024/03/26 13:20:54;;;;;;;2.57;1.80;;;;;;;;;;5114576;28;20416;-74
2024/03/26 13:23:21;;;;;;;2.53;1.70;;;;;;;;;;5114207;28;20438;-73
2024/03/26 13:25:47;;;;;;;2.13;1.70;;;;;;;;;;5113648;28;20410;-74
2024/03/26 13:28:13;;;;;;;3.10;1.40;;;;;;;;;;5112722;28;20521;-74
2024/03/26 13:30:39;;;;;;;2.30;1.67;;;;;;;;;;5113702;28;20550;-74
2024/03/26 13:33:05;;;;;;;1.90;1.50;;;;;;;;;;5113793;28;20502;-73
2024/03/26 13:35:31;;;;;;;2.17;1.50;;;;;;;;;;5113730;28;20477;-74
2024/03/26 13:37:57;;;;;;;3.80;1.67;;;;;;;;;;5113506;28;20441;-73
2024/03/26 13:40:23;;;;;;;4.17;1.50;;;;;;;;;;5113524;28;20523;-74
2024/03/26 13:42:49;;;;;;;2.40;1.40;;;;;;;;;;5113443;28;20398;-74
2024/03/26 13:45:15;;;;;;;4.40;2.13;;;;;;;;;;5113438;28;20460;-75
2024/03/26 13:47:41;;;;;;;1.70;1.57;;;;;;;;;;5113364;28;20452;-74
2024/03/26 13:50:08;;;;;;;3.70;1.80;;;;;;;;;;5113235;28;20944;-74
2024/03/26 13:52:34;;;;;;;1.90;1.43;;;;;;;;;;5113283;28;20410;-75
2024/03/26 13:55:01;;;;;;;2.30;1.70;;;;;;;;;;5113756;28;20402;-74
2024/03/26 13:57:27;;;;;;;3.07;1.93;;;;;;;;;;5113291;28;20397;-73
2024/03/26 13:59:53;;;;;;;2.40;1.77;;;;;;;;;;5113207;28;20993;-72
2024/03/26 14:02:19;;;;;;;3.17;2.00;;;;;;;;;;5113413;28;20429;-74
2024/03/26 14:04:45;;;;;;;2.07;1.40;;;;;;;;;;5113062;28;20761;-73
2024/03/26 14:07:12;;;;;;;3.10;1.60;;;;;;;;;;5113068;28;20406;-73
2024/03/26 14:09:40;;;;;;;1.67;1.37;;;;;;;;;;5112787;28;20472;-74
2024/03/26 14:12:07;;;;;;;3.40;1.80;;;;;;;;;;5112903;28;20448;-73
2024/03/26 14:14:33;;;;;;;3.50;1.60;;;;;;;;;;5112917;28;20695;-74
2024/03/26 14:16:59;;;;;;;2.00;1.50;;;;;;;;;;5112862;28;20402;-74
2024/03/26 14:19:25;;;;;;;1.50;1.23;;;;;;;;;;5112825;28;20635;-74
2024/03/26 14:21:51;;;;;;;1.40;1.20;;;;;;;;;;5112942;28;20405;-74
2024/03/26 14:24:17;;;;;;;4.10;2.20;;;;;;;;;;5112795;28;20407;-75
2024/03/26 14:26:43;;;;;;;1.87;1.27;;;;;;;;;;5112701;28;20402;-74
2024/03/26 14:29:09;;;;;;;2.20;1.30;;;;;;;;;;5112606;28;20475;-74
2024/03/26 14:31:36;;;;;;;3.23;1.17;;;;;;;;;;5111281;28;20816;-74
2024/03/26 14:34:02;;;;;;;4.50;1.40;;;;;;;;;;5112629;28;20402;-73
2024/03/26 14:36:29;;;;;;;1.60;1.10;;;;;;;;;;5112680;28;20398;-74
2024/03/26 14:38:55;;;;;;;2.60;1.30;;;;;;;;;;5114703;28;20415;-74